sensor_id;sensor_type;location;lat;lon;timestamp;pressure;altitude;pressure_sealevel;temperature;humidity
14089;BME280;7120;52.890;6.040;2022-10-14T00:01:19;101495.03;;;11.97;89.30
14089;BME280;7120;52.890;6.040;2022-10-14T00:03:45;101486.69;;;12.07;89.07
14089;BME280;7120;52.890;6.040;2022-10-14T00:06:17;101495.66;;;12.13;87.55
14089;BME280;7120;52.890;6.040;2022-10-14T00:08:43;101496.63;;;12.03;88.63
14089;BME280;7120;52.890;6.040;2022-10-14T00:11:12;101498.03;;;12.01;87.79
14089;BME280;7120;52.890;6.040;2022-10-14T00:13:38;101496.53;;;12.08;87.75
14089;BME280;7120;52.890;6.040;2022-10-14T00:16:05;101490.91;;;12.00;88.08
14089;BME280;7120;52.890;6.040;2022-10-14T00:18:31;101482.66;;;11.81;88.43
14089;BME280;7120;52.890;6.040;2022-10-14T00:21:00;101499.13;;;11.81;88.75
14089;BME280;7120;52.890;6.040;2022-10-14T00:23:26;101488.47;;;11.74;89.82
14089;BME280;7120;52.890;6.040;2022-10-14T00:25:52;101477.22;;;11.76;89.85
14089;BME280;7120;52.890;6.040;2022-10-14T00:28:17;101478.50;;;11.83;89.49
14089;BME280;7120;52.890;6.040;2022-10-14T00:30:53;101476.81;;;11.88;88.91
14089;BME280;7120;52.890;6.040;2022-10-14T00:33:18;101485.19;;;11.96;88.96
14089;BME280;7120;52.890;6.040;2022-10-14T00:35:58;101478.22;;;12.04;89.22
14089;BME280;7120;52.890;6.040;2022-10-14T00:38:24;101481.22;;;12.07;88.88
14089;BME280;7120;52.890;6.040;2022-10-14T00:40:50;101468.81;;;12.10;88.38
14089;BME280;7120;52.890;6.040;2022-10-14T00:43:16;101462.84;;;12.08;88.20
14089;BME280;7120;52.890;6.040;2022-10-14T00:45:41;101456.59;;;12.02;89.50
14089;BME280;7120;52.890;6.040;2022-10-14T00:48:07;101442.97;;;11.97;89.00
14089;BME280;7120;52.890;6.040;2022-10-14T00:50:34;101462.59;;;12.04;89.58
14089;BME280;7120;52.890;6.040;2022-10-14T00:53:00;101447.06;;;12.00;89.10
14089;BME280;7120;52.890;6.040;2022-10-14T00:55:27;101458.53;;;12.02;89.94
14089;BME280;7120;52.890;6.040;2022-10-14T00:57:53;101462.16;;;11.97;89.85
14089;BME280;7120;52.890;6.040;2022-10-14T01:00:19;101461.81;;;11.80;89.92
14089;BME280;7120;52.890;6.040;2022-10-14T01:02:45;101449.09;;;11.70;91.21
14089;BME280;7120;52.890;6.040;2022-10-14T01:05:13;101449.59;;;11.72;91.08
14089;BME280;7120;52.890;6.040;2022-10-14T01:10:42;101456.53;;;11.89;90.71
14089;BME280;7120;52.890;6.040;2022-10-14T01:13:36;101449.19;;;12.03;91.15
14089;BME280;7120;52.890;6.040;2022-10-14T01:16:30;101431.56;;;12.09;89.90
14089;BME280;7120;52.890;6.040;2022-10-14T01:22:30;101438.97;;;12.08;89.98
14089;BME280;7120;52.890;6.040;2022-10-14T01:25:09;101434.81;;;12.11;90.33
14089;BME280;7120;52.890;6.040;2022-10-14T01:30:21;101432.44;;;12.23;90.17
14089;BME280;7120;52.890;6.040;2022-10-14T01:33:13;101428.94;;;12.18;89.90
14089;BME280;7120;52.890;6.040;2022-10-14T01:35:55;101426.38;;;12.26;90.51
14089;BME280;7120;52.890;6.040;2022-10-14T01:38:31;101414.19;;;12.32;90.30
14089;BME280;7120;52.890;6.040;2022-10-14T01:41:06;101428.06;;;12.22;90.38
14089;BME280;7120;52.890;6.040;2022-10-14T01:43:34;101423.91;;;12.25;90.95
14089;BME280;7120;52.890;6.040;2022-10-14T01:46:03;101416.66;;;12.34;90.60
14089;BME280;7120;52.890;6.040;2022-10-14T01:48:33;101420.78;;;12.31;90.24
14089;BME280;7120;52.890;6.040;2022-10-14T01:51:00;101422.41;;;12.32;90.09
14089;BME280;7120;52.890;6.040;2022-10-14T01:53:35;101420.47;;;12.33;90.44
14089;BME280;7120;52.890;6.040;2022-10-14T01:56:02;101427.50;;;12.39;89.67
14089;BME280;7120;52.890;6.040;2022-10-14T01:58:29;101426.50;;;12.35;90.07
14089;BME280;7120;52.890;6.040;2022-10-14T02:00:58;101416.88;;;12.19;91.14
14089;BME280;7120;52.890;6.040;2022-10-14T02:03:23;101419.03;;;12.22;90.91
14089;BME280;7120;52.890;6.040;2022-10-14T02:11:16;101419.16;;;12.30;90.22
14089;BME280;7120;52.890;6.040;2022-10-14T02:19:23;101414.19;;;12.32;89.52
14089;BME280;7120;52.890;6.040;2022-10-14T02:21:59;101410.94;;;12.30;90.02
14089;BME280;7120;52.890;6.040;2022-10-14T02:24:30;101423.66;;;12.40;90.08
14089;BME280;7120;52.890;6.040;2022-10-14T02:26:59;101410.94;;;12.30;89.57
14089;BME280;7120;52.890;6.040;2022-10-14T02:29:28;101412.88;;;12.11;89.95
14089;BME280;7120;52.890;6.040;2022-10-14T02:31:55;101425.63;;;12.02;90.08
14089;BME280;7120;52.890;6.040;2022-10-14T02:34:23;101427.56;;;12.01;89.50
14089;BME280;7120;52.890;6.040;2022-10-14T02:36:49;101421.19;;;12.06;88.92
14089;BME280;7120;52.890;6.040;2022-10-14T02:39:21;101438.53;;;12.01;89.68
14089;BME280;7120;52.890;6.040;2022-10-14T02:41:50;101437.94;;;12.04;89.58
14089;BME280;7120;52.890;6.040;2022-10-14T02:44:15;101430.81;;;12.03;89.59
14089;BME280;7120;52.890;6.040;2022-10-14T02:46:41;101433.28;;;11.86;90.33
14089;BME280;7120;52.890;6.040;2022-10-14T02:49:06;101433.28;;;11.86;90.57
14089;BME280;7120;52.890;6.040;2022-10-14T02:51:32;101427.16;;;11.70;90.23
14089;BME280;7120;52.890;6.040;2022-10-14T02:53:57;101431.97;;;11.60;90.71
14089;BME280;7120;52.890;6.040;2022-10-14T02:56:25;101426.03;;;11.52;91.94
14089;BME280;7120;52.890;6.040;2022-10-14T02:58:50;101427.94;;;11.52;92.46
14089;BME280;7120;52.890;6.040;2022-10-14T03:01:16;101412.06;;;11.30;92.78
14089;BME280;7120;52.890;6.040;2022-10-14T03:03:41;101439.91;;;11.37;93.40
14089;BME280;7120;52.890;6.040;2022-10-14T03:06:06;101438.81;;;11.38;92.38
14089;BME280;7120;52.890;6.040;2022-10-14T03:08:32;101432.56;;;11.33;91.80
14089;BME280;7120;52.890;6.040;2022-10-14T03:10:57;101424.19;;;11.24;91.90
14089;BME280;7120;52.890;6.040;2022-10-14T03:13:23;101417.50;;;11.35;91.53
14089;BME280;7120;52.890;6.040;2022-10-14T03:15:48;101415.72;;;11.44;91.10
14089;BME280;7120;52.890;6.040;2022-10-14T03:18:15;101415.94;;;11.48;90.46
14089;BME280;7120;52.890;6.040;2022-10-14T03:20:42;101405.75;;;11.53;90.10
14089;BME280;7120;52.890;6.040;2022-10-14T03:23:08;101415.59;;;11.54;90.36
14089;BME280;7120;52.890;6.040;2022-10-14T03:25:34;101394.69;;;11.40;90.86
14089;BME280;7120;52.890;6.040;2022-10-14T03:27:59;101407.97;;;11.51;90.28
14089;BME280;7120;52.890;6.040;2022-10-14T03:30:24;101410.69;;;11.51;90.21
14089;BME280;7120;52.890;6.040;2022-10-14T03:32:49;101416.56;;;11.64;90.73
14089;BME280;7120;52.890;6.040;2022-10-14T03:35:15;101403.53;;;11.74;90.09
14089;BME280;7120;52.890;6.040;2022-10-14T03:37:40;101400.59;;;11.71;89.80
14089;BME280;7120;52.890;6.040;2022-10-14T03:40:06;101402.50;;;11.70;89.68
14089;BME280;7120;52.890;6.040;2022-10-14T03:42:32;101382.88;;;11.63;90.26
14089;BME280;7120;52.890;6.040;2022-10-14T03:44:57;101386.25;;;11.55;89.86
14089;BME280;7120;52.890;6.040;2022-10-14T03:47:22;101376.97;;;11.56;89.40
14089;BME280;7120;52.890;6.040;2022-10-14T03:49:48;101385.56;;;11.25;92.79
14089;BME280;7120;52.890;6.040;2022-10-14T03:52:13;101382.97;;;11.34;93.37
14089;BME280;7120;52.890;6.040;2022-10-14T03:54:38;101377.38;;;11.44;93.91
14089;BME280;7120;52.890;6.040;2022-10-14T03:57:04;101363.59;;;11.31;93.60
14089;BME280;7120;52.890;6.040;2022-10-14T03:59:29;101373.69;;;11.35;93.48
14089;BME280;7120;52.890;6.040;2022-10-14T04:01:54;101370.03;;;11.40;94.38
14089;BME280;7120;52.890;6.040;2022-10-14T04:04:20;101379.31;;;11.44;94.05
14089;BME280;7120;52.890;6.040;2022-10-14T04:06:45;101372.88;;;11.35;94.01
14089;BME280;7120;52.890;6.040;2022-10-14T04:09:10;101366.84;;;11.33;94.00
14089;BME280;7120;52.890;6.040;2022-10-14T04:11:36;101352.91;;;11.10;94.18
14089;BME280;7120;52.890;6.040;2022-10-14T04:14:01;101360.16;;;11.20;94.36
14089;BME280;7120;52.890;6.040;2022-10-14T04:16:27;101359.91;;;11.21;94.63
14089;BME280;7120;52.890;6.040;2022-10-14T04:18:53;101359.53;;;11.28;94.23
14089;BME280;7120;52.890;6.040;2022-10-14T04:21:18;101362.94;;;11.39;93.67
14089;BME280;7120;52.890;6.040;2022-10-14T04:23:44;101363.09;;;11.47;92.27
14089;BME280;7120;52.890;6.040;2022-10-14T04:26:09;101349.03;;;11.54;90.77
14089;BME280;7120;52.890;6.040;2022-10-14T04:28:35;101353.38;;;11.55;90.60
14089;BME280;7120;52.890;6.040;2022-10-14T04:31:02;101361.53;;;11.41;93.36
14089;BME280;7120;52.890;6.040;2022-10-14T04:33:27;101352.66;;;11.31;93.92
14089;BME280;7120;52.890;6.040;2022-10-14T04:35:57;101338.56;;;11.18;94.70
14089;BME280;7120;52.890;6.040;2022-10-14T04:38:22;101338.56;;;11.18;95.76
14089;BME280;7120;52.890;6.040;2022-10-14T04:40:48;101347.06;;;11.17;95.31
14089;BME280;7120;52.890;6.040;2022-10-14T04:43:13;101341.97;;;11.10;95.76
14089;BME280;7120;52.890;6.040;2022-10-14T04:45:39;101338.09;;;11.11;95.74
14089;BME280;7120;52.890;6.040;2022-10-14T04:48:04;101332.44;;;11.26;95.49
14089;BME280;7120;52.890;6.040;2022-10-14T04:50:29;101320.66;;;11.26;96.31
14089;BME280;7120;52.890;6.040;2022-10-14T04:52:54;101319.78;;;11.31;95.21
14089;BME280;7120;52.890;6.040;2022-10-14T04:55:20;101322.97;;;11.38;95.89
14089;BME280;7120;52.890;6.040;2022-10-14T04:57:45;101316.53;;;11.28;95.99
14089;BME280;7120;52.890;6.040;2022-10-14T05:00:11;101326.00;;;11.17;95.28
14089;BME280;7120;52.890;6.040;2022-10-14T05:02:37;101320.75;;;11.21;95.00
14089;BME280;7120;52.890;6.040;2022-10-14T05:05:04;101324.81;;;11.23;94.33
14089;BME280;7120;52.890;6.040;2022-10-14T05:07:29;101323.41;;;11.26;93.62
14089;BME280;7120;52.890;6.040;2022-10-14T05:09:55;101321.91;;;11.34;92.19
14089;BME280;7120;52.890;6.040;2022-10-14T05:12:20;101331.41;;;11.41;91.19
14089;BME280;7120;52.890;6.040;2022-10-14T05:14:46;101331.94;;;11.43;91.40
14089;BME280;7120;52.890;6.040;2022-10-14T05:17:11;101320.97;;;11.43;90.93
14089;BME280;7120;52.890;6.040;2022-10-14T05:19:36;101323.06;;;11.51;90.76
14089;BME280;7120;52.890;6.040;2022-10-14T05:22:02;101324.59;;;11.39;91.90
14089;BME280;7120;52.890;6.040;2022-10-14T05:24:27;101315.44;;;11.30;92.10
14089;BME280;7120;52.890;6.040;2022-10-14T05:26:53;101318.63;;;11.37;92.03
14089;BME280;7120;52.890;6.040;2022-10-14T05:29:18;101314.91;;;11.46;91.29
14089;BME280;7120;52.890;6.040;2022-10-14T05:31:43;101309.94;;;11.48;91.36
14089;BME280;7120;52.890;6.040;2022-10-14T05:34:10;101305.28;;;11.49;91.66
14089;BME280;7120;52.890;6.040;2022-10-14T05:36:35;101305.44;;;11.58;91.42
14089;BME280;7120;52.890;6.040;2022-10-14T05:39:01;101293.44;;;11.53;91.38
14089;BME280;7120;52.890;6.040;2022-10-14T05:41:26;101275.06;;;11.54;91.19
14089;BME280;7120;52.890;6.040;2022-10-14T05:43:52;101282.34;;;11.64;91.31
14089;BME280;7120;52.890;6.040;2022-10-14T05:46:18;101280.69;;;11.63;90.58
14089;BME280;7120;52.890;6.040;2022-10-14T05:48:44;101276.25;;;11.48;91.97
14089;BME280;7120;52.890;6.040;2022-10-14T05:51:09;101273.44;;;11.53;91.29
14089;BME280;7120;52.890;6.040;2022-10-14T05:53:35;101267.38;;;11.56;92.33
14089;BME280;7120;52.890;6.040;2022-10-14T05:56:06;101260.69;;;11.62;91.42
14089;BME280;7120;52.890;6.040;2022-10-14T05:58:32;101260.31;;;11.69;92.19
14089;BME280;7120;52.890;6.040;2022-10-14T06:01:01;101264.81;;;11.78;91.11
14089;BME280;7120;52.890;6.040;2022-10-14T06:03:27;101269.41;;;11.83;90.70
14089;BME280;7120;52.890;6.040;2022-10-14T06:05:53;101258.69;;;11.68;91.50
14089;BME280;7120;52.890;6.040;2022-10-14T06:08:19;101257.50;;;11.74;91.48
14089;BME280;7120;52.890;6.040;2022-10-14T06:10:45;101262.47;;;11.72;91.70
14089;BME280;7120;52.890;6.040;2022-10-14T06:13:11;101258.22;;;11.79;91.43
14089;BME280;7120;52.890;6.040;2022-10-14T06:15:36;101248.22;;;11.70;91.32
14089;BME280;7120;52.890;6.040;2022-10-14T06:18:03;101253.44;;;11.71;91.37
14089;BME280;7120;52.890;6.040;2022-10-14T06:20:29;101252.56;;;11.57;92.07
14089;BME280;7120;52.890;6.040;2022-10-14T06:22:54;101255.75;;;11.45;92.54
14089;BME280;7120;52.890;6.040;2022-10-14T06:25:19;101263.28;;;11.72;92.15
14089;BME280;7120;52.890;6.040;2022-10-14T06:27:45;101257.50;;;11.93;91.71
14089;BME280;7120;52.890;6.040;2022-10-14T06:30:11;101253.78;;;11.83;90.72
14089;BME280;7120;52.890;6.040;2022-10-14T06:32:36;101252.75;;;11.98;90.94
14089;BME280;7120;52.890;6.040;2022-10-14T06:35:02;101253.81;;;11.97;90.76
14089;BME280;7120;52.890;6.040;2022-10-14T06:37:27;101251.09;;;11.97;90.91
14089;BME280;7120;52.890;6.040;2022-10-14T06:39:53;101258.31;;;11.93;90.60
14089;BME280;7120;52.890;6.040;2022-10-14T06:42:18;101251.72;;;12.08;90.63
14089;BME280;7120;52.890;6.040;2022-10-14T06:44:44;101253.56;;;12.13;89.81
14089;BME280;7120;52.890;6.040;2022-10-14T06:47:09;101239.25;;;12.16;89.75
14089;BME280;7120;52.890;6.040;2022-10-14T06:49:35;101239.47;;;12.19;90.43
14089;BME280;7120;52.890;6.040;2022-10-14T06:52:00;101234.50;;;12.21;89.64
14089;BME280;7120;52.890;6.040;2022-10-14T06:54:26;101235.50;;;12.39;88.99
14089;BME280;7120;52.890;6.040;2022-10-14T06:56:51;101235.50;;;12.39;89.00
14089;BME280;7120;52.890;6.040;2022-10-14T06:59:16;101242.00;;;12.29;89.23
14089;BME280;7120;52.890;6.040;2022-10-14T07:01:41;101240.28;;;12.20;90.22
14089;BME280;7120;52.890;6.040;2022-10-14T07:04:07;101233.28;;;12.27;89.31
14089;BME280;7120;52.890;6.040;2022-10-14T07:06:35;101228.06;;;12.26;89.08
14089;BME280;7120;52.890;6.040;2022-10-14T07:09:01;101237.66;;;12.28;89.95
14089;BME280;7120;52.890;6.040;2022-10-14T07:11:26;101232.66;;;12.30;89.02
14089;BME280;7120;52.890;6.040;2022-10-14T07:13:52;101237.34;;;12.30;89.86
14089;BME280;7120;52.890;6.040;2022-10-14T07:16:18;101235.72;;;12.29;89.51
14089;BME280;7120;52.890;6.040;2022-10-14T07:18:44;101233.56;;;12.40;90.06
14089;BME280;7120;52.890;6.040;2022-10-14T07:21:09;101228.59;;;12.42;89.68
14089;BME280;7120;52.890;6.040;2022-10-14T07:23:35;101224.75;;;12.43;89.55
14089;BME280;7120;52.890;6.040;2022-10-14T07:26:01;101235.31;;;12.35;89.81
14089;BME280;7120;52.890;6.040;2022-10-14T07:28:26;101226.28;;;12.35;89.60
14089;BME280;7120;52.890;6.040;2022-10-14T07:31:10;101245.25;;;12.45;89.75
14089;BME280;7120;52.890;6.040;2022-10-14T07:33:38;101235.41;;;12.58;89.56
14089;BME280;7120;52.890;6.040;2022-10-14T07:36:10;101231.75;;;12.62;89.76
14089;BME280;7120;52.890;6.040;2022-10-14T07:38:36;101230.00;;;12.80;89.71
14089;BME280;7120;52.890;6.040;2022-10-14T07:41:05;101240.25;;;12.88;88.70
14089;BME280;7120;52.890;6.040;2022-10-14T07:43:32;101244.59;;;13.03;88.14
14089;BME280;7120;52.890;6.040;2022-10-14T07:46:03;101249.88;;;13.00;88.58
14089;BME280;7120;52.890;6.040;2022-10-14T07:48:31;101247.44;;;13.12;87.86
14089;BME280;7120;52.890;6.040;2022-10-14T07:50:56;101237.03;;;13.23;87.47
14089;BME280;7120;52.890;6.040;2022-10-14T07:53:23;101242.78;;;12.99;87.75
14089;BME280;7120;52.890;6.040;2022-10-14T07:55:48;101248.03;;;13.09;87.76
14089;BME280;7120;52.890;6.040;2022-10-14T07:58:25;101243.75;;;13.16;87.46
14089;BME280;7120;52.890;6.040;2022-10-14T08:00:51;101237.13;;;13.17;87.72
14089;BME280;7120;52.890;6.040;2022-10-14T08:03:18;101244.25;;;13.18;88.19
14089;BME280;7120;52.890;6.040;2022-10-14T08:05:44;101238.44;;;13.34;87.11
14089;BME280;7120;52.890;6.040;2022-10-14T08:08:11;101235.09;;;13.23;87.57
14089;BME280;7120;52.890;6.040;2022-10-14T08:10:37;101243.13;;;13.33;88.04
14089;BME280;7120;52.890;6.040;2022-10-14T08:13:03;101236.00;;;13.32;87.93
14089;BME280;7120;52.890;6.040;2022-10-14T08:15:37;101234.69;;;13.16;88.20
14089;BME280;7120;52.890;6.040;2022-10-14T08:18:06;101235.00;;;13.28;88.60
14089;BME280;7120;52.890;6.040;2022-10-14T08:20:32;101233.38;;;13.27;88.50
14089;BME280;7120;52.890;6.040;2022-10-14T08:22:58;101237.63;;;13.33;88.50
14089;BME280;7120;52.890;6.040;2022-10-14T08:25:24;101227.25;;;13.53;88.24
14089;BME280;7120;52.890;6.040;2022-10-14T08:27:49;101219.91;;;13.39;88.39
14089;BME280;7120;52.890;6.040;2022-10-14T08:30:16;101223.97;;;13.42;88.76
14089;BME280;7120;52.890;6.040;2022-10-14T08:32:41;101222.50;;;13.67;88.01
14089;BME280;7120;52.890;6.040;2022-10-14T08:35:07;101209.91;;;13.43;88.17
14089;BME280;7120;52.890;6.040;2022-10-14T08:37:33;101209.47;;;13.50;88.08
14089;BME280;7120;52.890;6.040;2022-10-14T08:39:58;101203.41;;;13.62;88.49
14089;BME280;7120;52.890;6.040;2022-10-14T08:42:26;101214.03;;;13.55;88.61
14089;BME280;7120;52.890;6.040;2022-10-14T08:45:04;101201.47;;;13.40;89.46
14089;BME280;7120;52.890;6.040;2022-10-14T08:47:39;101205.66;;;13.37;90.06
14089;BME280;7120;52.890;6.040;2022-10-14T08:52:55;101190.56;;;13.26;91.00
14089;BME280;7120;52.890;6.040;2022-10-14T08:55:32;101200.22;;;13.24;90.75
14089;BME280;7120;52.890;6.040;2022-10-14T09:00:35;101183.84;;;13.18;91.77
14089;BME280;7120;52.890;6.040;2022-10-14T09:03:05;101188.28;;;13.28;91.83
14089;BME280;7120;52.890;6.040;2022-10-14T09:05:37;101175.69;;;13.50;91.65
14089;BME280;7120;52.890;6.040;2022-10-14T09:08:04;101176.06;;;13.57;90.56
14089;BME280;7120;52.890;6.040;2022-10-14T09:10:39;101176.06;;;13.57;91.11
14089;BME280;7120;52.890;6.040;2022-10-14T09:13:17;101168.69;;;13.43;91.29
14089;BME280;7120;52.890;6.040;2022-10-14T09:15:46;101183.66;;;13.60;91.28
14089;BME280;7120;52.890;6.040;2022-10-14T09:18:37;101169.53;;;13.53;91.68
14089;BME280;7120;52.890;6.040;2022-10-14T09:22:08;101165.81;;;13.49;91.39
14089;BME280;7120;52.890;6.040;2022-10-14T09:24:24;101164.19;;;13.48;91.63
14089;BME280;7120;52.890;6.040;2022-10-14T09:26:54;101156.47;;;13.27;91.58
14089;BME280;7120;52.890;6.040;2022-10-14T09:29:28;101153.34;;;13.42;92.49
14089;BME280;7120;52.890;6.040;2022-10-14T09:32:03;101151.50;;;13.60;91.78
14089;BME280;7120;52.890;6.040;2022-10-14T09:34:43;101154.63;;;13.67;91.80
14089;BME280;7120;52.890;6.040;2022-10-14T09:37:36;101158.31;;;13.63;90.94
14089;BME280;7120;52.890;6.040;2022-10-14T09:45:14;101145.44;;;13.81;90.73
14089;BME280;7120;52.890;6.040;2022-10-14T09:48:01;101139.09;;;13.71;91.14
14089;BME280;7120;52.890;6.040;2022-10-14T09:50:39;101136.75;;;13.87;91.18
14089;BME280;7120;52.890;6.040;2022-10-14T09:53:15;101144.97;;;13.79;91.12
14089;BME280;7120;52.890;6.040;2022-10-14T09:55:51;101135.06;;;13.69;91.84
14089;BME280;7120;52.890;6.040;2022-10-14T10:00:56;101135.34;;;13.98;91.21
14089;BME280;7120;52.890;6.040;2022-10-14T10:03:31;101129.72;;;14.04;91.51
14089;BME280;7120;52.890;6.040;2022-10-14T10:06:08;101129.38;;;13.96;91.04
14089;BME280;7120;52.890;6.040;2022-10-14T10:08:40;101119.53;;;14.04;91.14
14089;BME280;7120;52.890;6.040;2022-10-14T10:11:35;101128.41;;;14.01;91.50
14089;BME280;7120;52.890;6.040;2022-10-14T10:16:47;101116.44;;;14.06;91.69
14089;BME280;7120;52.890;6.040;2022-10-14T10:19:38;101108.59;;;13.82;92.02
14089;BME280;7120;52.890;6.040;2022-10-14T10:25:33;101098.09;;;13.84;92.18
14089;BME280;7120;52.890;6.040;2022-10-14T10:27:43;101111.28;;;14.04;91.68
14089;BME280;7120;52.890;6.040;2022-10-14T10:33:06;101102.69;;;13.97;91.27
14089;BME280;7120;52.890;6.040;2022-10-14T10:35:51;101095.59;;;14.05;92.18
14089;BME280;7120;52.890;6.040;2022-10-14T10:38:28;101093.97;;;14.04;91.67
14089;BME280;7120;52.890;6.040;2022-10-14T10:46:50;101079.88;;;14.05;92.62
14089;BME280;7120;52.890;6.040;2022-10-14T10:55:14;101071.38;;;14.33;92.23
14089;BME280;7120;52.890;6.040;2022-10-14T11:00:49;101066.81;;;14.28;92.77
14089;BME280;7120;52.890;6.040;2022-10-14T11:03:53;101060.84;;;14.26;92.54
14089;BME280;7120;52.890;6.040;2022-10-14T11:06:29;101064.53;;;14.21;92.47
14089;BME280;7120;52.890;6.040;2022-10-14T11:09:24;101047.22;;;14.21;93.10
14089;BME280;7120;52.890;6.040;2022-10-14T11:12:30;101048.22;;;14.25;92.65
14089;BME280;7120;52.890;6.040;2022-10-14T11:15:02;101050.81;;;14.30;92.75
14089;BME280;7120;52.890;6.040;2022-10-14T11:20:46;101050.69;;;14.70;91.94
14089;BME280;7120;52.890;6.040;2022-10-14T11:26:49;101039.22;;;14.68;91.89
14089;BME280;7120;52.890;6.040;2022-10-14T11:29:38;101031.59;;;14.65;91.83
14089;BME280;7120;52.890;6.040;2022-10-14T11:35:16;101021.88;;;14.76;91.93
14089;BME280;7120;52.890;6.040;2022-10-14T11:40:33;101018.59;;;14.91;91.52
14089;BME280;7120;52.890;6.040;2022-10-14T11:43:28;101000.47;;;14.73;91.96
14089;BME280;7120;52.890;6.040;2022-10-14T11:46:04;101007.44;;;14.79;92.08
14089;BME280;7120;52.890;6.040;2022-10-14T11:48:38;101009.56;;;14.82;92.41
14089;BME280;7120;52.890;6.040;2022-10-14T11:51:10;101007.75;;;14.77;92.59
14089;BME280;7120;52.890;6.040;2022-10-14T11:53:41;101002.09;;;14.82;92.75
14089;BME280;7120;52.890;6.040;2022-10-14T12:01:40;100980.47;;;15.10;92.15
14089;BME280;7120;52.890;6.040;2022-10-14T12:04:19;100968.44;;;15.24;91.63
14089;BME280;7120;52.890;6.040;2022-10-14T12:06:53;100976.41;;;15.17;91.22
14089;BME280;7120;52.890;6.040;2022-10-14T12:12:00;100955.19;;;15.17;92.25
14089;BME280;7120;52.890;6.040;2022-10-14T12:14:50;100959.84;;;15.25;92.25
14089;BME280;7120;52.890;6.040;2022-10-14T12:17:45;100952.69;;;15.33;91.74
14089;BME280;7120;52.890;6.040;2022-10-14T12:22:41;100935.47;;;15.36;92.32
14089;BME280;7120;52.890;6.040;2022-10-14T12:25:12;100940.66;;;15.37;91.98
14089;BME280;7120;52.890;6.040;2022-10-14T12:27:41;100952.50;;;15.38;92.92
14089;BME280;7120;52.890;6.040;2022-10-14T12:33:04;100940.22;;;15.56;91.62
14089;BME280;7120;52.890;6.040;2022-10-14T12:38:15;100938.34;;;15.78;91.66
14089;BME280;7120;52.890;6.040;2022-10-14T12:40:40;100927.53;;;15.93;91.62
14089;BME280;7120;52.890;6.040;2022-10-14T12:43:16;100921.22;;;16.14;91.42
14089;BME280;7120;52.890;6.040;2022-10-14T12:45:48;100928.06;;;16.08;90.98
14089;BME280;7120;52.890;6.040;2022-10-14T12:48:22;100922.81;;;16.15;91.38
14089;BME280;7120;52.890;6.040;2022-10-14T12:50:56;100926.66;;;16.23;91.70
14089;BME280;7120;52.890;6.040;2022-10-14T12:53:31;100918.22;;;16.19;91.69
14089;BME280;7120;52.890;6.040;2022-10-14T12:56:00;100920.44;;;16.26;91.99
14089;BME280;7120;52.890;6.040;2022-10-14T12:58:29;100915.19;;;16.33;92.45
14089;BME280;7120;52.890;6.040;2022-10-14T13:01:02;100912.81;;;16.43;92.06
14089;BME280;7120;52.890;6.040;2022-10-14T13:03:38;100904.50;;;16.31;91.88
14089;BME280;7120;52.890;6.040;2022-10-14T13:06:36;100911.44;;;16.16;92.24
14089;BME280;7120;52.890;6.040;2022-10-14T13:11:38;100903.50;;;16.15;93.15
14089;BME280;7120;52.890;6.040;2022-10-14T13:21:55;100890.47;;;16.03;93.78
14089;BME280;7120;52.890;6.040;2022-10-14T13:35:12;100866.91;;;16.06;93.11
14089;BME280;7120;52.890;6.040;2022-10-14T13:38:06;100875.78;;;16.11;93.83
14089;BME280;7120;52.890;6.040;2022-10-14T13:40:33;100862.44;;;16.13;93.13
14089;BME280;7120;52.890;6.040;2022-10-14T13:43:11;100859.81;;;16.17;93.91
14089;BME280;7120;52.890;6.040;2022-10-14T13:45:46;100852.56;;;16.12;93.48
14089;BME280;7120;52.890;6.040;2022-10-14T13:48:14;100859.13;;;16.20;93.73
14089;BME280;7120;52.890;6.040;2022-10-14T13:50:41;100859.28;;;16.24;93.08
14089;BME280;7120;52.890;6.040;2022-10-14T13:53:19;100851.53;;;16.17;93.21
14089;BME280;7120;52.890;6.040;2022-10-14T13:55:47;100847.72;;;16.09;93.34
14089;BME280;7120;52.890;6.040;2022-10-14T13:58:15;100843.56;;;16.03;93.72
14089;BME280;7120;52.890;6.040;2022-10-14T14:03:31;100849.97;;;15.95;94.16
14089;BME280;7120;52.890;6.040;2022-10-14T14:05:58;100836.53;;;15.93;94.49
14089;BME280;7120;52.890;6.040;2022-10-14T14:08:27;100846.41;;;15.95;93.69
14089;BME280;7120;52.890;6.040;2022-10-14T14:11:01;100845.97;;;16.05;94.21
14089;BME280;7120;52.890;6.040;2022-10-14T14:13:42;100828.00;;;15.99;93.45
14089;BME280;7120;52.890;6.040;2022-10-14T14:16:17;100846.56;;;16.10;93.67
14089;BME280;7120;52.890;6.040;2022-10-14T14:18:46;100843.13;;;16.13;93.33
14089;BME280;7120;52.890;6.040;2022-10-14T14:21:12;100838.03;;;16.03;93.51
14089;BME280;7120;52.890;6.040;2022-10-14T14:23:56;100839.09;;;16.11;93.96
14089;BME280;7120;52.890;6.040;2022-10-14T14:26:31;100835.69;;;16.26;93.29
14089;BME280;7120;52.890;6.040;2022-10-14T14:28:57;100809.25;;;16.25;92.59
14089;BME280;7120;52.890;6.040;2022-10-14T14:31:25;100821.44;;;16.24;92.92
14089;BME280;7120;52.890;6.040;2022-10-14T14:33:55;100814.66;;;16.22;92.85
14089;BME280;7120;52.890;6.040;2022-10-14T14:36:21;100810.63;;;16.19;92.72
14089;BME280;7120;52.890;6.040;2022-10-14T14:38:57;100822.44;;;16.07;93.27
14089;BME280;7120;52.890;6.040;2022-10-14T14:41:25;100822.72;;;15.93;93.54
14089;BME280;7120;52.890;6.040;2022-10-14T14:43:53;100816.88;;;15.95;94.04
14089;BME280;7120;52.890;6.040;2022-10-14T14:46:31;100806.19;;;16.06;94.20
14089;BME280;7120;52.890;6.040;2022-10-14T14:48:58;100810.56;;;16.07;93.32
14089;BME280;7120;52.890;6.040;2022-10-14T14:51:30;100808.84;;;16.02;93.66
14089;BME280;7120;52.890;6.040;2022-10-14T14:53:57;100796.78;;;16.07;93.99
14089;BME280;7120;52.890;6.040;2022-10-14T14:56:30;100805.66;;;16.12;93.29
14089;BME280;7120;52.890;6.040;2022-10-14T14:59:06;100788.88;;;16.17;93.60
14089;BME280;7120;52.890;6.040;2022-10-14T15:01:33;100795.00;;;16.23;93.82
14089;BME280;7120;52.890;6.040;2022-10-14T15:04:05;100794.19;;;16.23;93.64